Details for Ryanair at LGTS




Go Back


Latest METAR
Local Time

LGTS 221720Z 16010KT 9999 FEW025 23/15 Q1017 NOSIG

22/05/2018, 20:55:17

Description
Results
Ryanair Logo
Number of Pilots based at LGTS
0 Pilots Based here
Number of Ryanair Flights Departed from LGTS
0 Flights Departed
Number of Ryanair Flights Arrived at LGTS
1 Flights Arrived
Number of Ryanair Schedules Departing from LGTS
62 Schedules
Number of Ryanair Schedules Arriving at LGTS
62 Schedules
Number of Ryanair Schedules Departing from LGTS availible today
16 Schedules Today
Number of Ryanair Schedules Arriving at LGTS availible today
16 Schedules Today
Average Landing Rate at LGTS
-221 fpm
Ryanair Average Landing Rate at LGTS
-318 fpm
Total Fuel Purchased at LGTS by Ryanair
0.00 kgs / 0.00 lbs

Pilots Based at LGTS


Pilot ID
Pilot Name
Pilot Rank
No. of Flights
No. of Flying Hours
There are no pilots assigned to this hub!   Will you be the first?
Content